createdAt,value
2023-03-18T00:00:12.261Z,100943.69
2023-03-18T00:02:42.663Z,100935.69
2023-03-18T00:05:11.708Z,100938.81
2023-03-18T00:07:40.417Z,100939.06
2023-03-18T00:10:10.984Z,100938.22
2023-03-18T00:12:40.192Z,100947.06
2023-03-18T00:15:10.555Z,100938.16
2023-03-18T00:17:40.312Z,100934.66
2023-03-18T00:20:13.105Z,100934.38
2023-03-18T00:22:43.457Z,100941.31
2023-03-18T00:25:14.353Z,100935.22
2023-03-18T00:27:42.606Z,100940.22
2023-03-18T00:30:12.574Z,100928.56
2023-03-18T00:32:41.594Z,100928.44
2023-03-18T00:35:12.311Z,100928.44
2023-03-18T00:37:40.704Z,100924.00
2023-03-18T00:40:17.468Z,100918.06
2023-03-18T00:42:50.714Z,100919.88
2023-03-18T00:45:19.261Z,100923.59
2023-03-18T00:47:48.627Z,100914.81
2023-03-18T00:50:19.328Z,100922.53
2023-03-18T00:52:48.558Z,100924.09
2023-03-18T00:55:17.229Z,100927.25
2023-03-18T00:57:45.588Z,100928.09
2023-03-18T01:00:17.181Z,100925.69
2023-03-18T01:02:45.566Z,100927.25
2023-03-18T01:05:14.391Z,100933.59
2023-03-18T01:07:44.777Z,100930.06
2023-03-18T01:10:14.772Z,100926.28
2023-03-18T01:12:44.146Z,100934.00
2023-03-18T01:15:14.609Z,100923.13
2023-03-18T01:17:43.093Z,100929.28
2023-03-18T01:20:13.313Z,100928.16
2023-03-18T01:22:43.142Z,100933.47
2023-03-18T01:25:12.180Z,100932.72
2023-03-18T01:27:40.813Z,100919.19
2023-03-18T01:30:10.689Z,100921.88
2023-03-18T01:32:39.265Z,100911.19
2023-03-18T01:35:08.222Z,100917.53
2023-03-18T01:37:36.820Z,100916.19
2023-03-18T01:40:09.202Z,100917.41
2023-03-18T01:42:37.878Z,100925.22
2023-03-18T01:45:19.767Z,100914.31
2023-03-18T01:47:49.965Z,100913.41
2023-03-18T01:50:20.653Z,100925.50
2023-03-18T01:52:50.925Z,100916.19
2023-03-18T01:55:23.849Z,100923.66
2023-03-18T01:57:52.704Z,100925.00
2023-03-18T02:00:21.924Z,100929.56
2023-03-18T02:02:51.812Z,100937.28
2023-03-18T02:07:52.798Z,100934.97
2023-03-18T02:10:24.749Z,100933.09
2023-03-18T02:12:58.281Z,100928.91
2023-03-18T02:15:28.547Z,100926.50
2023-03-18T02:18:00.254Z,100934.50
2023-03-18T02:20:54.916Z,100922.41
2023-03-18T02:23:31.306Z,100918.72
2023-03-18T02:26:09.902Z,100918.41
2023-03-18T02:28:41.128Z,100926.50
2023-03-18T02:31:14.200Z,100923.78
2023-03-18T02:33:44.028Z,100914.38
2023-03-18T02:36:18.859Z,100925.09
2023-03-18T02:38:47.928Z,100925.50
2023-03-18T02:41:19.430Z,100921.69
2023-03-18T02:43:49.852Z,100913.44
2023-03-18T02:46:31.339Z,100918.78
2023-03-18T02:49:01.849Z,100921.00
2023-03-18T02:51:30.622Z,100918.53
2023-03-18T02:54:03.976Z,100927.13
2023-03-18T02:56:32.296Z,100912.75
2023-03-18T02:59:02.107Z,100921.69
2023-03-18T03:01:30.666Z,100929.50
2023-03-18T03:03:59.180Z,100930.00
2023-03-18T03:06:27.614Z,100925.50
2023-03-18T03:08:57.352Z,100934.41
2023-03-18T03:11:26.198Z,100930.06
2023-03-18T03:13:54.815Z,100925.09
2023-03-18T03:16:24.503Z,100925.16
2023-03-18T03:18:53.205Z,100918.59
2023-03-18T03:21:21.743Z,100920.50
2023-03-18T03:23:50.533Z,100927.06
2023-03-18T03:26:19.407Z,100921.84
2023-03-18T03:28:48.245Z,100917.34
2023-03-18T03:31:17.106Z,100918.88
2023-03-18T03:33:47.843Z,100908.28
2023-03-18T03:36:18.729Z,100905.34
2023-03-18T03:38:47.403Z,100918.81
2023-03-18T03:41:17.228Z,100919.34
2023-03-18T03:43:46.047Z,100920.44
2023-03-18T03:46:14.683Z,100924.09
2023-03-18T03:48:43.129Z,100931.25
2023-03-18T03:51:13.008Z,100921.84
2023-03-18T03:53:41.315Z,100923.94
2023-03-18T03:56:11.499Z,100924.06
2023-03-18T03:58:40.263Z,100923.03
2023-03-18T04:01:08.673Z,100928.31
2023-03-18T04:03:37.231Z,100919.34
2023-03-18T04:06:07.043Z,100929.91
2023-03-18T04:08:36.942Z,100924.44
2023-03-18T04:11:05.842Z,100929.16
2023-03-18T04:13:34.838Z,100924.13
2023-03-18T04:16:03.154Z,100934.06
2023-03-18T04:18:31.908Z,100926.34
2023-03-18T04:21:00.761Z,100922.78
2023-03-18T04:23:29.018Z,100924.28
2023-03-18T04:25:58.682Z,100928.19
2023-03-18T04:28:27.281Z,100932.56
2023-03-18T04:30:55.690Z,100919.31
2023-03-18T04:33:24.067Z,100935.28
2023-03-18T04:35:52.767Z,100931.47
2023-03-18T04:38:21.792Z,100941.25
2023-03-18T04:40:50.027Z,100935.72
2023-03-18T04:43:19.864Z,100938.78
2023-03-18T04:45:48.157Z,100937.53
2023-03-18T04:48:16.450Z,100934.75
2023-03-18T04:50:44.831Z,100939.47
2023-03-18T04:53:13.079Z,100930.50
2023-03-18T04:55:41.647Z,100928.78
2023-03-18T04:58:09.860Z,100936.53
2023-03-18T05:00:39.722Z,100931.97
2023-03-18T05:03:08.419Z,100933.25
2023-03-18T05:05:38.631Z,100925.47
2023-03-18T05:08:08.107Z,100935.56
2023-03-18T05:10:36.523Z,100942.06
2023-03-18T05:13:04.935Z,100946.88
2023-03-18T05:15:33.485Z,100939.69
2023-03-18T05:18:04.788Z,100943.78
2023-03-18T05:20:33.137Z,100941.78
2023-03-18T05:23:02.081Z,100942.78
2023-03-18T05:25:30.663Z,100936.50
2023-03-18T05:27:59.716Z,100930.31
2023-03-18T05:30:28.525Z,100939.06
2023-03-18T05:32:56.931Z,100938.75
2023-03-18T05:35:26.702Z,100943.47
2023-03-18T05:37:55.059Z,100945.00
2023-03-18T05:40:24.220Z,100944.38
2023-03-18T05:42:56.118Z,100953.38
2023-03-18T05:45:25.302Z,100956.09
2023-03-18T05:47:53.810Z,100961.84
2023-03-18T05:50:31.456Z,100958.66
2023-03-18T05:52:59.885Z,100954.97
2023-03-18T05:55:29.685Z,100951.53
2023-03-18T05:57:59.165Z,100956.97
2023-03-18T06:00:28.798Z,100949.16
2023-03-18T06:03:01.402Z,100962.13
2023-03-18T06:05:32.099Z,100972.47
2023-03-18T06:08:01.698Z,100959.56
2023-03-18T06:10:31.205Z,100966.16
2023-03-18T06:12:59.406Z,100981.84
2023-03-18T06:15:28.011Z,100977.53
2023-03-18T06:17:56.405Z,100971.44
2023-03-18T06:20:25.090Z,100976.78
2023-03-18T06:22:54.864Z,100975.44
2023-03-18T06:25:24.068Z,100975.94
2023-03-18T06:27:52.987Z,100967.78
2023-03-18T06:30:21.623Z,100955.00
2023-03-18T06:32:49.963Z,100952.13
2023-03-18T06:35:18.955Z,100941.53
2023-03-18T06:37:47.257Z,100947.00
2023-03-18T06:40:17.608Z,100933.44
2023-03-18T06:42:46.541Z,100940.16
2023-03-18T06:45:15.468Z,100948.66
2023-03-18T06:47:44.130Z,100971.16
2023-03-18T06:50:13.771Z,100967.97
2023-03-18T06:52:42.442Z,100965.59
2023-03-18T06:55:11.571Z,100971.19
2023-03-18T06:57:41.710Z,100969.06
2023-03-18T07:00:28.220Z,100955.72
2023-03-18T07:02:56.644Z,100958.38
2023-03-18T07:05:26.517Z,100968.19
2023-03-18T07:07:55.380Z,100966.06
2023-03-18T07:10:25.623Z,100956.09
2023-03-18T07:12:55.849Z,100970.53
2023-03-18T07:15:26.300Z,100964.69
2023-03-18T07:17:55.742Z,100957.13
2023-03-18T07:20:25.053Z,100965.13
2023-03-18T07:22:53.472Z,100968.34
2023-03-18T07:25:23.127Z,100974.94
2023-03-18T07:27:52.283Z,100966.72
2023-03-18T07:30:23.080Z,100952.34
2023-03-18T07:32:51.501Z,100956.19
2023-03-18T07:35:20.740Z,100953.03
2023-03-18T07:37:49.504Z,100953.03
2023-03-18T07:40:18.455Z,100955.16
2023-03-18T07:42:46.816Z,100961.44
2023-03-18T07:45:15.907Z,100951.28
2023-03-18T07:47:48.203Z,100966.25
2023-03-18T07:50:17.657Z,100958.84
2023-03-18T07:52:54.000Z,100955.34
2023-03-18T07:55:22.587Z,100963.06
2023-03-18T07:57:51.355Z,100963.56
2023-03-18T08:00:21.475Z,100958.22
2023-03-18T08:02:51.348Z,100952.69
2023-03-18T08:05:22.211Z,100963.38
2023-03-18T08:07:50.491Z,100963.72
2023-03-18T08:10:19.167Z,100963.72
2023-03-18T08:12:53.147Z,100964.25
2023-03-18T08:15:22.632Z,100957.84
2023-03-18T08:17:53.117Z,100961.03
2023-03-18T08:20:23.176Z,100966.63
2023-03-18T08:22:51.683Z,100961.25
2023-03-18T08:25:20.237Z,100955.63
2023-03-18T08:27:48.506Z,100965.53
2023-03-18T08:30:16.843Z,100980.50
2023-03-18T08:32:46.578Z,100971.44
2023-03-18T08:35:17.033Z,100973.03
2023-03-18T08:37:45.420Z,100980.22
2023-03-18T08:40:14.846Z,100992.47
2023-03-18T08:42:43.146Z,100991.97
2023-03-18T08:45:12.540Z,100988.78
2023-03-18T08:47:41.547Z,100992.50
2023-03-18T08:50:11.420Z,100994.09
2023-03-18T08:52:41.705Z,100978.13
2023-03-18T08:55:10.960Z,100978.09
2023-03-18T08:57:39.422Z,100980.50
2023-03-18T09:00:09.089Z,100983.97
2023-03-18T09:02:37.724Z,100986.09
2023-03-18T09:05:06.908Z,100980.75
2023-03-18T09:07:35.216Z,100982.38
2023-03-18T09:10:06.196Z,100987.72
2023-03-18T09:12:34.602Z,100972.25
2023-03-18T09:15:03.575Z,100976.44
2023-03-18T09:17:48.886Z,100979.97
2023-03-18T09:20:20.377Z,100978.09
2023-03-18T09:22:51.070Z,100991.38
2023-03-18T09:25:21.204Z,100977.53
2023-03-18T09:27:50.747Z,100975.41
2023-03-18T09:30:19.142Z,100975.53
2023-03-18T09:32:47.883Z,100969.09
2023-03-18T09:35:16.604Z,100971.00
2023-03-18T09:37:45.188Z,100971.38
2023-03-18T09:40:21.456Z,100994.34
2023-03-18T09:43:01.002Z,100977.03
2023-03-18T09:45:34.949Z,100979.16
2023-03-18T09:48:23.024Z,100977.81
2023-03-18T09:51:01.389Z,100983.97
2023-03-18T09:53:38.472Z,100975.19
2023-03-18T09:56:14.187Z,100985.03
2023-03-18T09:58:51.510Z,100973.28
2023-03-18T10:01:21.747Z,100968.69
2023-03-18T10:03:54.926Z,100969.53
2023-03-18T10:06:25.821Z,100974.28
2023-03-18T10:09:02.740Z,100979.97
2023-03-18T10:11:34.794Z,100967.69
2023-03-18T10:14:19.534Z,100970.63
2023-03-18T10:16:58.403Z,100964.44
2023-03-18T10:19:28.366Z,100954.84
2023-03-18T10:22:12.694Z,100959.84
2023-03-18T10:24:49.898Z,100960.56
2023-03-18T10:27:22.536Z,100966.03
2023-03-18T10:30:01.446Z,100950.00
2023-03-18T10:32:49.162Z,100949.78
2023-03-18T10:35:28.270Z,100953.31
2023-03-18T10:38:04.645Z,100950.91
2023-03-18T10:40:38.699Z,100944.50
2023-03-18T10:43:17.257Z,100942.09
2023-03-18T10:45:49.827Z,100951.69
2023-03-18T10:48:24.616Z,100936.25
2023-03-18T10:51:04.253Z,100933.06
2023-03-18T10:53:40.371Z,100929.88
2023-03-18T10:56:10.504Z,100926.41
2023-03-18T10:58:39.693Z,100930.16
2023-03-18T11:01:11.876Z,100925.34
2023-03-18T11:03:46.123Z,100923.75
2023-03-18T11:06:20.229Z,100913.63
2023-03-18T11:08:51.344Z,100909.38
2023-03-18T11:11:32.994Z,100916.00
2023-03-18T11:14:03.348Z,100909.91
2023-03-18T11:16:38.369Z,100917.91
2023-03-18T11:19:25.738Z,100915.22
2023-03-18T11:22:04.604Z,100910.44
2023-03-18T11:24:42.589Z,100909.66
2023-03-18T11:27:35.776Z,100920.56
2023-03-18T11:30:16.662Z,100919.75
2023-03-18T11:32:59.377Z,100924.81
2023-03-18T11:35:38.150Z,100914.41
2023-03-18T11:38:07.901Z,100940.25
2023-03-18T11:40:36.443Z,100916.31
2023-03-18T11:43:15.928Z,100914.72
2023-03-18T11:45:54.873Z,100915.22
2023-03-18T11:48:36.902Z,100913.34
2023-03-18T11:51:38.510Z,100917.13
2023-03-18T11:54:21.685Z,100922.94
2023-03-18T11:56:56.412Z,100916.28
2023-03-18T11:59:34.155Z,100914.69
2023-03-18T12:02:24.418Z,100914.16
2023-03-18T12:05:32.827Z,100914.69
2023-03-18T12:08:11.948Z,100899.78
2023-03-18T12:10:48.336Z,100901.91
2023-03-18T12:13:43.601Z,100903.50
2023-03-18T12:16:20.576Z,100898.47
2023-03-18T12:19:05.212Z,100902.44
2023-03-18T12:22:15.585Z,100907.25
2023-03-18T12:25:07.734Z,100910.44
2023-03-18T12:27:46.751Z,100907.22
2023-03-18T12:30:31.240Z,100915.75
2023-03-18T12:33:07.609Z,100902.44
2023-03-18T12:35:50.957Z,100893.13
2023-03-18T12:39:09.774Z,100906.69
2023-03-18T12:41:54.803Z,100920.53
2023-03-18T12:44:42.772Z,100917.81
2023-03-18T12:47:17.037Z,100914.34
2023-03-18T12:49:50.812Z,100929.75
2023-03-18T12:52:30.358Z,100930.00
2023-03-18T12:55:04.112Z,100907.06
2023-03-18T12:57:44.269Z,100903.88
2023-03-18T13:00:23.956Z,100912.34
2023-03-18T13:03:06.893Z,100908.09
2023-03-18T13:05:45.628Z,100901.47
2023-03-18T13:08:59.053Z,100910.56
2023-03-18T13:12:04.374Z,100898.06
2023-03-18T13:14:50.385Z,100899.91
2023-03-18T13:17:25.978Z,100895.63
2023-03-18T13:19:54.492Z,100890.00
2023-03-18T13:23:13.192Z,100882.00
2023-03-18T13:25:53.625Z,100887.31
2023-03-18T13:28:34.293Z,100880.84
2023-03-18T13:31:16.834Z,100881.34
2023-03-18T13:34:03.092Z,100871.75
2023-03-18T13:36:59.118Z,100881.88
2023-03-18T13:39:49.503Z,100875.72
2023-03-18T13:42:24.436Z,100885.50
2023-03-18T13:45:05.065Z,100906.25
2023-03-18T13:47:38.022Z,100881.25
2023-03-18T13:50:09.035Z,100882.00
2023-03-18T13:52:44.196Z,100884.91
2023-03-18T13:55:29.040Z,100876.69
2023-03-18T13:57:59.365Z,100883.09
2023-03-18T14:00:35.539Z,100882.00
2023-03-18T14:03:18.244Z,100872.16
2023-03-18T14:05:47.847Z,100879.34
2023-03-18T14:08:47.541Z,100877.47
2023-03-18T14:11:50.461Z,100889.19
2023-03-18T14:14:55.194Z,100875.34
2023-03-18T14:17:33.511Z,100875.91
2023-03-18T14:20:28.700Z,100875.56
2023-03-18T14:23:19.217Z,100866.25
2023-03-18T14:25:54.741Z,100868.66
2023-03-18T14:28:28.666Z,100871.31
2023-03-18T14:31:14.080Z,100873.72
2023-03-18T14:34:33.404Z,100882.47
2023-03-18T14:37:25.505Z,100881.13
2023-03-18T14:39:56.730Z,100886.97
2023-03-18T14:42:47.425Z,100880.63
2023-03-18T14:45:21.772Z,100882.50
2023-03-18T14:47:53.064Z,100886.16
2023-03-18T14:50:33.862Z,100880.56
2023-03-18T14:53:11.105Z,100884.84
2023-03-18T14:55:40.428Z,100884.25
2023-03-18T14:58:16.877Z,100880.75
2023-03-18T15:00:46.938Z,100891.88
2023-03-18T15:03:21.944Z,100889.81
2023-03-18T15:05:51.095Z,100880.75
2023-03-18T15:08:37.439Z,100880.75
2023-03-18T15:11:14.277Z,100891.59
2023-03-18T15:13:44.967Z,100892.13
2023-03-18T15:16:16.272Z,100892.72
2023-03-18T15:18:44.648Z,100891.63
2023-03-18T15:21:17.616Z,100898.31
2023-03-18T15:23:51.436Z,100901.22
2023-03-18T15:26:23.362Z,100884.69
2023-03-18T15:28:56.510Z,100887.09
2023-03-18T15:31:30.810Z,100904.13
2023-03-18T15:34:16.603Z,100898.03
2023-03-18T15:36:47.688Z,100905.94
2023-03-18T15:39:33.194Z,100904.09
2023-03-18T15:42:03.018Z,100910.97
2023-03-18T15:44:33.036Z,100906.66
2023-03-18T15:47:14.865Z,100913.59
2023-03-18T15:49:55.216Z,100915.94
2023-03-18T15:52:26.877Z,100917.78
2023-03-18T15:54:56.838Z,100922.88
2023-03-18T15:57:30.983Z,100924.22
2023-03-18T15:59:59.309Z,100931.09
2023-03-18T16:02:28.811Z,100931.91
2023-03-18T16:05:07.863Z,100936.16
2023-03-18T16:07:36.133Z,100931.41
2023-03-18T16:10:06.763Z,100928.53
2023-03-18T16:12:35.915Z,100932.19
2023-03-18T16:15:05.587Z,100932.47
2023-03-18T16:17:34.421Z,100941.47
2023-03-18T16:20:04.571Z,100934.59
2023-03-18T16:22:34.295Z,100934.34
2023-03-18T16:25:02.718Z,100939.41
2023-03-18T16:27:37.688Z,100937.28
2023-03-18T16:30:07.464Z,100934.63
2023-03-18T16:32:37.760Z,100931.72
2023-03-18T16:35:06.889Z,100947.13
2023-03-18T16:37:35.682Z,100945.25
2023-03-18T16:40:03.995Z,100948.22
2023-03-18T16:42:35.393Z,100956.44
2023-03-18T16:45:05.567Z,100950.63
2023-03-18T16:47:34.887Z,100954.28
2023-03-18T16:50:04.116Z,100950.03
2023-03-18T16:52:32.467Z,100958.34
2023-03-18T16:55:00.855Z,100963.09
2023-03-18T16:57:29.603Z,100957.03
2023-03-18T17:00:00.883Z,100948.56
2023-03-18T17:02:32.784Z,100943.53
2023-03-18T17:05:01.046Z,100945.16
2023-03-18T17:07:29.706Z,100948.69
2023-03-18T17:09:57.991Z,100953.47
2023-03-18T17:12:26.465Z,100946.56
2023-03-18T17:14:57.089Z,100948.16
2023-03-18T17:17:30.071Z,100954.56
2023-03-18T17:19:59.850Z,100961.78
2023-03-18T17:22:30.611Z,100959.38
2023-03-18T17:25:00.242Z,100967.34
2023-03-18T17:27:32.285Z,100964.44
2023-03-18T17:30:00.863Z,100965.81
2023-03-18T17:32:30.842Z,100966.59
2023-03-18T17:34:59.186Z,100974.84
2023-03-18T17:37:27.498Z,100969.78
2023-03-18T17:39:57.399Z,100976.19
2023-03-18T17:42:30.393Z,100971.66
2023-03-18T17:45:04.594Z,100986.31
2023-03-18T17:47:34.554Z,100987.09
2023-03-18T17:50:05.125Z,100978.59
2023-03-18T17:52:34.150Z,100980.69
2023-03-18T17:55:02.864Z,100988.19
2023-03-18T17:57:32.072Z,100972.97
2023-03-18T18:00:00.410Z,100978.59
2023-03-18T18:02:29.199Z,100978.88
2023-03-18T18:04:59.119Z,100978.28
2023-03-18T18:07:30.317Z,100990.25
2023-03-18T18:10:01.104Z,100998.72
2023-03-18T18:12:29.724Z,100993.41
2023-03-18T18:14:58.455Z,101006.47
2023-03-18T18:17:27.225Z,101006.72
2023-03-18T18:19:55.965Z,101001.41
2023-03-18T18:22:26.813Z,101011.53
2023-03-18T18:24:57.302Z,101014.69
2023-03-18T18:27:25.637Z,101013.94
2023-03-18T18:29:54.561Z,101008.34
2023-03-18T18:32:24.955Z,101013.09
2023-03-18T18:34:53.300Z,101016.81
2023-03-18T18:37:26.162Z,101014.69
2023-03-18T18:39:56.737Z,101005.59
2023-03-18T18:42:25.728Z,101022.66
2023-03-18T18:44:54.074Z,101013.81
2023-03-18T18:47:23.557Z,101023.41
2023-03-18T18:49:52.397Z,101030.56
2023-03-18T18:52:20.818Z,101018.38
2023-03-18T18:54:49.813Z,101023.19
2023-03-18T18:57:26.886Z,101033.28
2023-03-18T18:59:55.793Z,101024.53
2023-03-18T19:02:31.856Z,101025.31
2023-03-18T19:05:00.968Z,101035.69
2023-03-18T19:07:30.335Z,101036.75
2023-03-18T19:09:59.422Z,101034.66
2023-03-18T19:12:29.317Z,101022.94
2023-03-18T19:14:57.830Z,101031.19
2023-03-18T19:17:26.320Z,101020.03
2023-03-18T19:19:54.997Z,101024.56
2023-03-18T19:22:23.561Z,101022.69
2023-03-18T19:24:52.080Z,101031.44
2023-03-18T19:27:25.938Z,101018.97
2023-03-18T19:29:58.316Z,101035.78
2023-03-18T19:32:27.453Z,101030.44
2023-03-18T19:34:56.399Z,101022.22
2023-03-18T19:37:29.276Z,101021.63
2023-03-18T19:39:58.061Z,101030.66
2023-03-18T19:42:27.035Z,101032.28
2023-03-18T19:44:57.848Z,101028.06
2023-03-18T19:47:28.188Z,101029.63
2023-03-18T19:49:56.959Z,101038.69
2023-03-18T19:52:27.257Z,101039.22
2023-03-18T19:54:56.616Z,101027.81
2023-03-18T19:57:27.696Z,101020.94
2023-03-18T19:59:59.723Z,101021.41
2023-03-18T20:02:30.766Z,101027.53
2023-03-18T20:05:01.057Z,101026.19
2023-03-18T20:07:32.746Z,101034.94
2023-03-18T20:10:01.431Z,101025.94
2023-03-18T20:12:35.356Z,101026.97
2023-03-18T20:15:06.095Z,101027.78
2023-03-18T20:17:38.845Z,101034.44
2023-03-18T20:20:08.827Z,101028.28
2023-03-18T20:22:40.568Z,101040.00
2023-03-18T20:25:18.006Z,101041.63
2023-03-18T20:27:46.498Z,101031.75
2023-03-18T20:30:35.555Z,101037.06
2023-03-18T20:33:05.097Z,101029.09
2023-03-18T20:35:36.174Z,101034.66
2023-03-18T20:38:11.118Z,101038.97
2023-03-18T20:40:41.268Z,101033.91
2023-03-18T20:43:14.469Z,101028.06
2023-03-18T20:45:45.579Z,101033.66
2023-03-18T20:48:14.679Z,101012.63
2023-03-18T20:50:43.261Z,101029.94
2023-03-18T20:53:17.439Z,101022.72
2023-03-18T20:55:46.845Z,101012.59
2023-03-18T20:58:16.733Z,101015.28
2023-03-18T21:00:47.336Z,101015.56
2023-03-18T21:03:24.183Z,101008.41
2023-03-18T21:05:53.137Z,101017.44
2023-03-18T21:08:21.504Z,101021.47
2023-03-18T21:10:50.432Z,101018.28
2023-03-18T21:13:24.696Z,101008.97
2023-03-18T21:15:54.662Z,101008.97
2023-03-18T21:18:23.586Z,101008.72
2023-03-18T21:20:52.065Z,100999.97
2023-03-18T21:23:22.571Z,100998.59
2023-03-18T21:25:51.264Z,100993.59
2023-03-18T21:28:21.709Z,100989.06
2023-03-18T21:30:52.426Z,100993.06
2023-03-18T21:33:26.586Z,100989.84
2023-03-18T21:35:57.246Z,100994.72
2023-03-18T21:38:25.857Z,100988.88
2023-03-18T21:40:57.263Z,100997.38
2023-03-18T21:43:37.189Z,100981.16
2023-03-18T21:46:09.114Z,100991.03
2023-03-18T21:48:39.851Z,100981.16
2023-03-18T21:51:31.601Z,100982.00
2023-03-18T21:54:06.522Z,100984.66
2023-03-18T21:56:37.205Z,100987.31
2023-03-18T21:59:08.591Z,100976.16
2023-03-18T22:01:38.104Z,100979.63
2023-03-18T22:04:14.117Z,100986.56
2023-03-18T22:06:46.444Z,100977.78
2023-03-18T22:09:15.420Z,100991.09
2023-03-18T22:11:45.423Z,100976.19
2023-03-18T22:14:22.520Z,100980.44
2023-03-18T22:16:53.940Z,100990.81
2023-03-18T22:19:27.322Z,100995.63
2023-03-18T22:21:56.153Z,100999.31
2023-03-18T22:24:25.340Z,101003.03
2023-03-18T22:26:53.604Z,101006.53
2023-03-18T22:29:24.350Z,100993.75
2023-03-18T22:31:53.041Z,100996.16
2023-03-18T22:34:25.047Z,100992.66
2023-03-18T22:36:53.476Z,101002.56
2023-03-18T22:39:21.844Z,100995.91
2023-03-18T22:41:50.220Z,100992.72
2023-03-18T22:44:23.980Z,100987.13
2023-03-18T22:46:52.399Z,101002.56
2023-03-18T22:49:20.904Z,101006.31
2023-03-18T22:51:51.314Z,101001.47
2023-03-18T22:54:20.075Z,101005.97
2023-03-18T22:56:48.405Z,100992.19
2023-03-18T22:59:17.314Z,100997.00
2023-03-18T23:01:45.680Z,101000.69
2023-03-18T23:04:14.482Z,101005.69
2023-03-18T23:06:43.130Z,101008.94
2023-03-18T23:09:13.096Z,101008.09
2023-03-18T23:11:41.757Z,101008.09
2023-03-18T23:14:12.268Z,101006.00
2023-03-18T23:16:40.857Z,101011.31
2023-03-18T23:19:09.206Z,101008.66
2023-03-18T23:21:37.865Z,101007.38
2023-03-18T23:24:06.656Z,101011.38
2023-03-18T23:26:38.315Z,101011.38
2023-03-18T23:29:07.002Z,101007.63
2023-03-18T23:31:35.684Z,101005.22
2023-03-18T23:34:04.051Z,101003.88
2023-03-18T23:36:32.827Z,101006.56
2023-03-18T23:39:01.299Z,101001.28
2023-03-18T23:41:29.560Z,101007.34
2023-03-18T23:43:59.367Z,100994.28
2023-03-18T23:46:27.806Z,101004.38
2023-03-18T23:48:56.454Z,101000.16
2023-03-18T23:51:25.177Z,100992.13
2023-03-18T23:53:53.522Z,101003.59
2023-03-18T23:56:22.111Z,100992.69
2023-03-18T23:58:50.581Z,100999.84
